This is the latest recevied weather packets stored in our database for station/object VK1KCM-5. If no packets are shown the sender has not sent any weather packets the latest 10 day(s).
| Time | Temp. | Humidity | Pressure | Rain* | Wind** | Luminosity | Snow |
|---|---|---|---|---|---|---|---|
| 1788139057 | 17.78° C | 46% | 1027.7 hPa | 0 mm | - | - | - |
| 1788138761 | 17.78° C | 45% | 1027.9 hPa | 0 mm | - | - | - |
| 1788138463 | 17.78° C | 45% | 1027.8 hPa | 0 mm | - | - | - |
| 1788138179 | 17.22° C | 46% | 1028.2 hPa | 0 mm | - | - | - |
| 1788137912 | 17.22° C | 47% | 1028.4 hPa | 0 mm | - | - | - |
| 1788137627 | 17.22° C | 48% | 1028.4 hPa | 0 mm | - | - | - |
| 1788137342 | 16.11° C | 52% | 1028.7 hPa | 0 mm | - | - | - |
| 1788137089 | 16.11° C | 51% | 1028.6 hPa | 0 mm | - | - | - |
| 1788136845 | 16.11° C | 51% | 1028.6 hPa | 0 mm | - | - | - |
| 1788136582 | 16.11° C | 51% | 1028.8 hPa | 0 mm | - | - | - |
| 1788136292 | 15.56° C | 53% | 1028.9 hPa | 0 mm | - | - | - |
| 1788135997 | 15° C | 55% | 1029.4 hPa | 0 mm | - | - | - |
| 1788135751 | 15° C | 56% | 1029.2 hPa | 0 mm | - | - | - |
| 1788135509 | 14.44° C | 58% | 1029.3 hPa | 0 mm | - | - | - |
| 1788135269 | 13.89° C | 58% | 1029.7 hPa | 0 mm | - | - | - |
| 1788134987 | 13.33° C | 58% | 1029.9 hPa | 0 mm | - | - | - |
| 1788134700 | 13.89° C | 59% | 1029.8 hPa | 0 mm | - | - | - |
| 1788134447 | 13.89° C | 59% | 1029.8 hPa | 0 mm | - | - | - |
| 1788134207 | 13.89° C | 60% | 1029.8 hPa | 0 mm | - | - | - |
| 1788133927 | 12.78° C | 61% | 1030.2 hPa | 0 mm | - | - | - |
| 1788133630 | 12.22° C | 63% | 1030.1 hPa | 0 mm | - | - | - |
| 1788133362 | 12.22° C | 63% | 1030.2 hPa | 0 mm | - | - | - |
| 1788133062 | 11.67° C | 63% | 1030.4 hPa | 0 mm | - | - | - |
| 1788132782 | 11.11° C | 66% | 1030.7 hPa | 0 mm | - | - | - |
| 1788132531 | 11.67° C | 65% | 1030.7 hPa | 0 mm | - | - | - |
* Rain latest hour (hover to see other rain measurements)
** Current wind speed in m/s (hover to see current wind gust speed)